Time;durP1;ratioP1;P1;durP2;ratioP2;P2;SDS_P1;SDS_P2;PMS_P1;PMS_P2;Temp;Humidity;BMP_temperature;BMP_pressure;BME280_temperature;BME280_humidity;BME280_pressure;Samples;Min_cycle;Max_cycle;Signal;HPM_P1;HPM_P2
2021/07/12 00:00:21;;;;;;;9.93;5.95;;;;;;;23.79;59.49;99716.91;4352476;32;34891;-86
2021/07/12 00:02:51;;;;;;;6.90;5.55;;;;;;;23.79;59.90;99716.91;4352300;32;33616;-86
2021/07/12 00:05:19;;;;;;;9.52;6.28;;;;;;;23.90;59.83;99725.13;4352595;32;33081;-86
2021/07/12 00:07:47;;;;;;;8.15;6.93;;;;;;;23.88;60.19;99732.31;4352438;32;34373;-86
2021/07/12 00:10:18;;;;;;;24.02;7.20;;;;;;;23.82;60.68;99735.31;4365176;32;34334;-88
2021/07/12 00:12:46;;;;;;;11.15;6.82;;;;;;;23.68;61.44;99729.06;4352343;32;34326;-87
2021/07/12 00:15:17;;;;;;;13.27;7.20;;;;;;;23.70;61.38;99728.00;4364420;32;33386;-87
2021/07/12 00:17:46;;;;;;;7.90;6.87;;;;;;;23.83;60.92;99723.75;4339965;32;33813;-86
2021/07/12 00:20:15;;;;;;;14.65;7.68;;;;;;;23.84;61.02;99724.63;4364645;32;35544;-86
2021/07/12 00:22:44;;;;;;;12.50;7.37;;;;;;;23.52;62.13;99718.41;4364031;32;33663;-86
2021/07/12 00:25:13;;;;;;;8.00;6.70;;;;;;;23.68;61.72;99710.47;4352136;32;33335;-88
2021/07/12 00:27:42;;;;;;;10.07;7.10;;;;;;;23.63;61.70;99720.47;4364863;32;33965;-85
2021/07/12 00:30:13;;;;;;;11.07;7.10;;;;;;;23.62;62.03;99716.09;4377870;32;34222;-86
2021/07/12 00:32:42;;;;;;;9.63;7.68;;;;;;;23.70;61.83;99721.88;4352293;32;35056;-86
2021/07/12 00:35:12;;;;;;;11.02;7.25;;;;;;;23.57;62.28;99716.34;4352365;32;33472;-86
2021/07/12 00:37:41;;;;;;;10.18;7.35;;;;;;;23.58;62.42;99727.84;4351826;32;34168;-86
2021/07/12 00:40:15;;;;;;;12.05;7.97;;;;;;;23.53;62.65;99728.09;4352484;32;35737;-86
2021/07/12 00:42:44;;;;;;;10.98;6.97;;;;;;;23.43;62.99;99734.81;4352038;32;32993;-86
2021/07/12 00:45:16;;;;;;;9.75;7.55;;;;;;;23.35;63.43;99740.53;4364023;32;33207;-86
2021/07/12 00:47:50;;;;;;;9.77;7.47;;;;;;;23.47;62.92;99742.53;4364068;32;34770;-85
2021/07/12 00:50:20;;;;;;;8.60;7.62;;;;;;;23.48;62.86;99741.63;4352274;32;35439;-86
2021/07/12 00:52:49;;;;;;;8.35;7.22;;;;;;;23.36;63.37;99744.91;4364230;32;33778;-85
2021/07/12 00:55:31;;;;;;;9.23;7.60;;;;;;;23.39;63.12;99742.06;4327616;32;32096;-86
2021/07/12 00:58:01;;;;;;;11.60;8.07;;;;;;;23.28;63.64;99739.12;4377899;32;33392;-85
2021/07/12 01:00:29;;;;;;;11.70;7.37;;;;;;;23.32;63.73;99745.12;4352098;32;34667;-86
2021/07/12 01:02:57;;;;;;;13.05;8.13;;;;;;;23.39;63.32;99755.34;4351548;32;34546;-86
2021/07/12 01:05:31;;;;;;;9.20;8.27;;;;;;;23.44;63.30;99760.41;4351477;32;33981;-85
2021/07/12 01:08:02;;;;;;;9.43;8.20;;;;;;;23.04;64.97;99756.31;4352565;32;33313;-85
2021/07/12 01:10:32;;;;;;;10.13;8.32;;;;;;;23.41;63.68;99763.25;4339918;32;34029;-85
2021/07/12 01:13:20;;;;;;;10.82;8.18;;;;;;;23.29;64.27;99772.69;4351778;32;33782;-86
2021/07/12 01:16:16;;;;;;;11.48;8.95;;;;;;;23.19;64.56;99779.41;4364150;32;32854;-86
2021/07/12 01:19:15;;;;;;;11.88;9.60;;;;;;;23.32;64.22;99769.00;4364437;32;34675;-85
2021/07/12 01:22:04;;;;;;;13.60;9.63;;;;;;;23.19;64.70;99773.22;4351652;32;34591;-86
2021/07/12 01:24:51;;;;;;;10.88;9.27;;;;;;;22.99;65.34;99766.28;4363750;32;34132;-86
2021/07/12 01:27:43;;;;;;;12.57;8.57;;;;;;;23.19;64.79;99763.47;4364028;32;33608;-86
2021/07/12 01:30:21;;;;;;;12.37;9.80;;;;;;;23.20;64.78;99767.00;4364073;32;33924;-85
2021/07/12 01:33:25;;;;;;;18.35;10.55;;;;;;;22.98;65.53;99769.91;4364349;32;35383;-86
2021/07/12 01:36:00;;;;;;;18.48;10.15;;;;;;;23.12;65.07;99767.38;4363870;32;34157;-86
2021/07/12 01:38:40;;;;;;;13.95;10.05;;;;;;;23.22;64.64;99771.28;4351743;32;34309;-86
2021/07/12 01:41:34;;;;;;;11.15;9.85;;;;;;;23.21;64.57;99776.66;4364111;32;34368;-85
2021/07/12 01:44:27;;;;;;;12.50;10.38;;;;;;;23.30;64.15;99782.34;4351408;32;34236;-86
2021/07/12 01:47:07;;;;;;;15.45;10.55;;;;;;;23.26;64.31;99786.09;4377463;32;34933;-85
2021/07/12 01:49:38;;;;;;;14.30;11.50;;;;;;;23.11;64.52;99781.59;4351742;32;33745;-86
2021/07/12 01:52:12;;;;;;;13.10;10.75;;;;;;;23.08;64.70;99780.91;4364010;32;34090;-86
2021/07/12 01:55:02;;;;;;;14.18;11.38;;;;;;;23.22;64.18;99779.25;4351838;32;35391;-86
2021/07/12 01:57:36;;;;;;;17.90;11.90;;;;;;;23.29;63.85;99775.34;4363764;32;34174;-86
2021/07/12 02:00:08;;;;;;;15.82;12.25;;;;;;;23.36;63.58;99778.56;4363405;32;34021;-86
2021/07/12 02:02:50;;;;;;;12.75;11.45;;;;;;;23.18;64.13;99780.31;4352632;32;34415;-85
2021/07/12 02:05:22;;;;;;;16.12;11.85;;;;;;;23.36;63.50;99781.22;4364312;32;35495;-86
2021/07/12 02:07:51;;;;;;;14.27;12.55;;;;;;;23.23;63.80;99774.78;4364077;32;33992;-86
2021/07/12 02:10:20;;;;;;;16.50;13.02;;;;;;;23.21;63.83;99777.53;4363639;32;33993;-85
2021/07/12 02:12:51;;;;;;;17.37;11.73;;;;;;;23.02;64.58;99775.88;4363745;32;34293;-86
2021/07/12 02:15:19;;;;;;;13.18;11.88;;;;;;;23.25;63.75;99768.44;4363382;32;34290;-85
2021/07/12 02:17:50;;;;;;;13.70;12.30;;;;;;;23.03;64.49;99774.97;4363875;32;34194;-85
2021/07/12 02:20:20;;;;;;;13.40;11.63;;;;;;;22.90;64.78;99766.75;4351536;32;33796;-85
2021/07/12 02:22:49;;;;;;;13.27;11.98;;;;;;;22.81;65.03;99759.28;4351596;32;33591;-85
2021/07/12 02:25:17;;;;;;;16.42;11.65;;;;;;;22.86;64.60;99762.56;4351829;32;34425;-85
2021/07/12 02:27:47;;;;;;;13.23;11.15;;;;;;;22.85;64.60;99747.56;4351351;32;34005;-85
2021/07/12 02:30:16;;;;;;;13.77;10.68;;;;;;;23.06;63.44;99751.78;4339197;32;33146;-85
2021/07/12 02:32:45;;;;;;;12.13;10.18;;;;;;;23.05;63.59;99752.72;4351076;32;32709;-85
2021/07/12 02:35:15;;;;;;;13.80;9.80;;;;;;;23.15;63.15;99756.63;4350992;32;34207;-86
2021/07/12 02:37:45;;;;;;;14.02;10.27;;;;;;;23.01;63.43;99761.75;4352010;32;34134;-85
2021/07/12 02:40:16;;;;;;;13.05;9.60;;;;;;;23.26;62.62;99764.87;4339084;32;32579;-85
2021/07/12 02:42:50;;;;;;;11.40;9.23;;;;;;;23.19;62.60;99758.19;4351113;32;34668;-85
2021/07/12 02:45:22;;;;;;;11.02;9.23;;;;;;;23.22;62.25;99758.03;4336609;32;34613;-86
2021/07/12 02:47:50;;;;;;;10.45;9.20;;;;;;;23.00;62.86;99760.06;4363421;32;35783;-85
2021/07/12 02:50:20;;;;;;;10.98;8.98;;;;;;;23.21;62.16;99761.59;4363324;32;32870;-86
2021/07/12 02:53:10;;;;;;;10.93;9.40;;;;;;;23.15;62.22;99759.28;4375399;32;33279;-86
2021/07/12 02:55:38;;;;;;;11.40;9.05;;;;;;;23.09;62.35;99756.06;4363160;32;35762;-86
2021/07/12 02:58:09;;;;;;;8.85;7.93;;;;;;;23.06;62.32;99756.25;4339031;32;32933;-86
2021/07/12 03:00:37;;;;;;;9.70;8.70;;;;;;;23.31;61.45;99759.31;4351341;32;33431;-86
2021/07/12 03:03:07;;;;;;;9.38;7.97;;;;;;;23.15;61.76;99755.78;4362954;32;33453;-86
2021/07/12 03:05:34;;;;;;;9.02;7.55;;;;;;;23.22;61.51;99746.53;4338212;32;33594;-86
2021/07/12 03:08:08;;;;;;;10.70;7.30;;;;;;;23.38;60.94;99743.03;4338861;32;34572;-85
2021/07/12 03:10:50;;;;;;;8.60;6.85;;;;;;;23.22;61.16;99739.44;4376697;32;34239;-86
2021/07/12 03:13:22;;;;;;;10.07;6.53;;;;;;;23.28;60.82;99738.25;4352844;32;33119;-86
2021/07/12 03:15:51;;;;;;;8.85;6.25;;;;;;;23.20;61.02;99737.81;4364934;32;35436;-86
2021/07/12 03:18:29;;;;;;;8.40;7.20;;;;;;;23.35;60.62;99743.19;4378566;32;34254;-86
2021/07/12 03:20:59;;;;;;;7.15;6.30;;;;;;;23.36;60.59;99736.97;4340314;32;33347;-86
2021/07/12 03:23:30;;;;;;;9.30;6.35;;;;;;;23.43;60.18;99733.03;4327982;32;34262;-86
2021/07/12 03:25:59;;;;;;;7.97;5.72;;;;;;;23.54;60.07;99727.13;4352621;32;34465;-87
2021/07/12 03:28:28;;;;;;;7.20;6.00;;;;;;;23.35;60.40;99727.25;4378543;32;34860;-86
2021/07/12 03:30:56;;;;;;;6.68;5.90;;;;;;;23.44;60.03;99733.87;4364806;32;33172;-87
2021/07/12 03:33:25;;;;;;;6.90;5.40;;;;;;;23.40;60.25;99730.53;4364715;32;34788;-86
2021/07/12 03:35:54;;;;;;;6.85;5.65;;;;;;;23.34;60.21;99729.97;4352590;32;34935;-86
2021/07/12 03:38:23;;;;;;;8.63;5.47;;;;;;;23.44;59.86;99736.53;4364399;32;33603;-86
2021/07/12 03:40:52;;;;;;;8.13;5.45;;;;;;;23.49;59.47;99723.88;4327944;32;34240;-86
2021/07/12 03:43:21;;;;;;;5.85;5.03;;;;;;;23.69;58.55;99725.44;4340687;32;34219;-85
2021/07/12 03:45:58;;;;;;;5.57;5.07;;;;;;;23.60;59.08;99721.50;4352741;32;34563;-85
2021/07/12 03:48:36;;;;;;;5.62;4.97;;;;;;;23.50;59.56;99712.31;4328557;32;34595;-86
2021/07/12 03:51:06;;;;;;;7.85;4.85;;;;;;;23.62;59.37;99702.81;4352418;32;32716;-86
2021/07/12 03:53:35;;;;;;;6.25;5.12;;;;;;;23.61;59.20;99709.06;4352288;32;33686;-86
2021/07/12 03:56:05;;;;;;;6.30;4.85;;;;;;;23.78;58.86;99703.69;4352328;32;34721;-86
2021/07/12 03:58:34;;;;;;;4.95;4.45;;;;;;;23.83;58.32;99696.31;4364785;32;33736;-85
2021/07/12 04:01:03;;;;;;;5.75;4.50;;;;;;;23.87;58.00;99693.41;4364846;32;33912;-86
2021/07/12 04:03:32;;;;;;;7.85;4.70;;;;;;;23.92;57.90;99699.31;4352374;32;33852;-86
2021/07/12 04:06:01;;;;;;;6.62;4.78;;;;;;;23.92;58.09;99711.75;4364974;32;34241;-87
2021/07/12 04:08:30;;;;;;;5.97;4.18;;;;;;;23.83;58.44;99712.25;4364847;32;33665;-86
2021/07/12 04:10:58;;;;;;;5.53;4.68;;;;;;;23.96;58.11;99705.34;4352028;32;34255;-86
2021/07/12 04:13:26;;;;;;;8.48;4.68;;;;;;;23.96;57.87;99692.88;4340193;32;32537;-86
2021/07/12 04:15:54;;;;;;;7.20;4.53;;;;;;;23.91;58.04;99686.16;4364206;32;33860;-87
2021/07/12 04:18:23;;;;;;;5.90;4.43;;;;;;;23.84;58.52;99703.37;4339647;32;34521;-87
2021/07/12 04:20:51;;;;;;;10.13;4.57;;;;;;;23.84;58.45;99698.06;4351853;32;33986;-86
2021/07/12 04:23:19;;;;;;;4.70;4.30;;;;;;;23.88;58.74;99681.84;4364358;32;34728;-84
2021/07/12 04:25:47;;;;;;;5.75;4.35;;;;;;;24.06;57.51;99682.59;4364331;32;34655;-84
2021/07/12 04:28:15;;;;;;;7.32;4.10;;;;;;;24.12;57.61;99672.53;4364510;32;34116;-84
2021/07/12 04:30:43;;;;;;;6.93;4.82;;;;;;;24.00;58.22;99678.50;4364382;32;32926;-84
2021/07/12 04:33:12;;;;;;;6.35;4.78;;;;;;;24.07;58.14;99689.66;4364392;32;33889;-84
2021/07/12 04:35:40;;;;;;;8.40;4.87;;;;;;;24.07;58.34;99681.69;4364239;32;35545;-84
2021/07/12 04:38:08;;;;;;;5.65;4.97;;;;;;;24.06;58.61;99678.19;4351947;32;34409;-84
2021/07/12 04:40:36;;;;;;;7.65;5.25;;;;;;;24.23;58.39;99666.59;4364404;32;34294;-84
2021/07/12 04:43:05;;;;;;;5.85;4.60;;;;;;;24.27;58.04;99672.59;4351340;32;34767;-84
2021/07/12 04:45:33;;;;;;;9.25;4.68;;;;;;;24.29;58.13;99682.19;4376771;32;33837;-84
2021/07/12 04:48:02;;;;;;;5.60;5.10;;;;;;;24.42;57.71;99677.84;4377825;32;34991;-85
2021/07/12 04:50:30;;;;;;;7.55;5.07;;;;;;;24.35;58.04;99680.97;4364557;32;33761;-84
2021/07/12 04:52:58;;;;;;;6.62;4.97;;;;;;;24.29;57.86;99676.88;4372794;32;34544;-86
2021/07/12 04:55:26;;;;;;;7.47;5.25;;;;;;;24.27;57.91;99675.25;4347859;32;33943;-86
2021/07/12 04:57:55;;;;;;;5.45;4.90;;;;;;;24.23;58.39;99674.56;4337406;32;34004;-86
2021/07/12 05:00:23;;;;;;;5.87;5.28;;;;;;;24.31;58.27;99674.13;4339200;32;33279;-83
2021/07/12 05:02:52;;;;;;;6.72;5.03;;;;;;;24.43;58.35;99670.75;4350996;32;33968;-84
2021/07/12 05:05:20;;;;;;;10.93;4.97;;;;;;;24.48;58.11;99669.53;4350767;32;33601;-84
2021/07/12 05:07:48;;;;;;;8.30;4.93;;;;;;;24.56;58.12;99667.25;4338788;32;33941;-86
2021/07/12 05:10:17;;;;;;;5.25;4.45;;;;;;;24.58;58.15;99668.03;4338884;32;33560;-87
2021/07/12 05:12:45;;;;;;;5.95;4.40;;;;;;;24.68;57.93;99668.34;4339173;32;33689;-86
2021/07/12 05:15:13;;;;;;;10.82;4.62;;;;;;;24.88;57.38;99662.72;4346173;32;34490;-86
2021/07/12 05:17:41;;;;;;;8.15;4.65;;;;;;;24.81;57.60;99667.56;4361356;32;34912;-86
2021/07/12 05:20:10;;;;;;;5.80;4.45;;;;;;;25.04;56.85;99663.50;4350101;32;33821;-85
2021/07/12 05:22:38;;;;;;;6.35;4.45;;;;;;;25.12;56.67;99653.25;4374131;32;33853;-84
2021/07/12 05:25:08;;;;;;;6.82;4.57;;;;;;;25.23;56.12;99652.56;4361148;32;36328;-84
2021/07/12 05:27:36;;;;;;;5.60;4.10;;;;;;;25.26;55.67;99649.72;4350684;32;33546;-84
2021/07/12 05:30:06;;;;;;;4.97;3.87;;;;;;;25.45;55.32;99655.63;4363650;32;33742;-84
2021/07/12 05:32:35;;;;;;;7.60;4.03;;;;;;;25.54;54.99;99653.25;4363982;32;34081;-84
2021/07/12 05:35:05;;;;;;;6.20;4.43;;;;;;;25.55;55.36;99649.59;4349781;32;35563;-85
2021/07/12 05:37:33;;;;;;;5.28;4.15;;;;;;;25.54;55.51;99663.03;4363190;32;34435;-85
2021/07/12 05:40:01;;;;;;;7.12;4.30;;;;;;;25.31;56.06;99661.78;4350809;32;32647;-84
2021/07/12 05:42:30;;;;;;;6.57;4.37;;;;;;;25.27;55.75;99659.44;4362511;32;34088;-89
2021/07/12 05:44:58;;;;;;;7.07;4.37;;;;;;;25.23;56.02;99664.06;4350731;32;35431;-89
2021/07/12 05:47:27;;;;;;;7.85;4.18;;;;;;;25.37;56.07;99665.84;4362743;32;34076;-89
2021/07/12 05:49:55;;;;;;;5.95;4.20;;;;;;;25.54;55.71;99660.38;4363515;32;33436;-85
2021/07/12 05:52:23;;;;;;;7.18;3.97;;;;;;;25.64;55.37;99669.50;4367617;32;33684;-87
2021/07/12 05:54:51;;;;;;;7.35;4.70;;;;;;;25.71;54.95;99670.81;4348356;32;33848;-87
2021/07/12 05:57:20;;;;;;;4.25;3.85;;;;;;;25.89;54.35;99669.59;4357954;32;35022;-88
2021/07/12 05:59:47;;;;;;;4.93;3.78;;;;;;;26.09;53.94;99671.84;4344733;32;33746;-87
2021/07/12 06:02:17;;;;;;;4.07;3.53;;;;;;;26.00;53.98;99668.94;4344863;32;34545;-87
2021/07/12 06:04:46;;;;;;;8.25;3.60;;;;;;;26.13;53.35;99661.84;4357689;32;33150;-86
2021/07/12 06:07:14;;;;;;;6.43;3.47;;;;;;;26.07;53.35;99663.09;4357622;32;34636;-87
2021/07/12 06:09:42;;;;;;;5.47;3.58;;;;;;;26.05;53.13;99659.66;4344782;32;32798;-85
2021/07/12 06:12:11;;;;;;;7.22;3.25;;;;;;;26.31;52.60;99665.13;4344639;32;38261;-85
2021/07/12 06:14:38;;;;;;;3.87;3.47;;;;;;;26.26;53.80;99667.25;4357808;32;34048;-85
2021/07/12 06:17:07;;;;;;;7.28;3.75;;;;;;;26.42;51.87;99662.59;4359846;32;34560;-87
2021/07/12 06:19:35;;;;;;;6.43;3.42;;;;;;;26.30;52.50;99668.72;4360131;32;32933;-87
2021/07/12 06:22:04;;;;;;;5.20;3.62;;;;;;;26.17;53.24;99666.06;4345280;32;33556;-89
2021/07/12 06:24:32;;;;;;;5.75;3.40;;;;;;;26.50;52.33;99666.47;4363065;32;34481;-88
2021/07/12 06:27:00;;;;;;;5.20;3.53;;;;;;;26.42;52.29;99671.44;4363182;32;34202;-88
2021/07/12 06:29:27;;;;;;;5.65;3.62;;;;;;;26.51;52.42;99673.50;4350754;32;33046;-88
2021/07/12 06:31:55;;;;;;;4.75;3.60;;;;;;;26.71;52.03;99674.81;4363877;32;34163;-88
2021/07/12 06:34:26;;;;;;;5.57;3.17;;;;;;;26.50;52.32;99673.59;4350662;32;34104;-87
2021/07/12 06:36:54;;;;;;;5.22;3.42;;;;;;;26.59;51.93;99687.19;4362955;32;34896;-88
2021/07/12 06:39:21;;;;;;;6.25;4.45;;;;;;;26.60;52.90;99682.72;4376740;32;34498;-86
2021/07/12 06:41:49;;;;;;;6.35;3.85;;;;;;;26.70;51.95;99683.78;4362777;32;33954;-86
2021/07/12 06:44:17;;;;;;;7.47;3.75;;;;;;;26.64;52.68;99689.53;4362758;32;35471;-86
2021/07/12 06:46:48;;;;;;;7.65;3.83;;;;;;;27.01;51.69;99683.41;4362348;32;34885;-87
2021/07/12 06:49:16;;;;;;;5.40;3.58;;;;;;;27.09;51.17;99697.09;4350685;32;33970;-86
2021/07/12 06:51:44;;;;;;;9.90;3.90;;;;;;;27.18;50.45;99698.25;4362544;32;34331;-86
2021/07/12 06:54:12;;;;;;;6.80;3.78;;;;;;;27.28;49.50;99700.19;4363122;32;33963;-87
2021/07/12 06:56:40;;;;;;;5.03;3.97;;;;;;;27.44;48.61;99697.31;4363038;32;33452;-87
2021/07/12 06:59:08;;;;;;;6.65;3.47;;;;;;;27.50;47.95;99694.22;4350852;32;33647;-87
2021/07/12 07:01:40;;;;;;;6.30;3.80;;;;;;;27.45;48.87;99689.22;4363262;32;34738;-88
2021/07/12 07:04:08;;;;;;;7.68;3.65;;;;;;;27.55;48.50;99693.91;4350551;32;34090;-87
2021/07/12 07:06:35;;;;;;;6.75;3.42;;;;;;;27.67;47.73;99695.69;4362769;32;34453;-87
2021/07/12 07:09:03;;;;;;;5.05;3.53;;;;;;;27.79;48.27;99700.16;4350505;32;34008;-86
2021/07/12 07:11:31;;;;;;;4.87;3.75;;;;;;;27.69;49.49;99696.44;4350669;32;33526;-87
2021/07/12 07:13:59;;;;;;;5.62;3.25;;;;;;;27.91;48.32;99694.75;4350518;32;34651;-87
2021/07/12 07:16:28;;;;;;;7.85;3.67;;;;;;;28.05;48.53;99693.78;4362789;32;34349;-86
2021/07/12 07:18:56;;;;;;;7.15;3.47;;;;;;;28.19;46.80;99691.78;4362195;32;33146;-86
2021/07/12 07:21:23;;;;;;;7.70;3.58;;;;;;;28.36;45.72;99698.56;4376215;32;33900;-85
2021/07/12 07:23:52;;;;;;;4.57;3.40;;;;;;;28.33;45.88;99692.59;4347021;32;34934;-86
2021/07/12 07:26:20;;;;;;;5.97;3.78;;;;;;;28.63;45.46;99699.19;4335368;32;33525;-86
2021/07/12 07:28:47;;;;;;;7.00;4.30;;;;;;;28.72;44.89;99694.97;4334533;32;34061;-86
2021/07/12 07:31:15;;;;;;;4.82;3.90;;;;;;;28.66;45.48;99693.63;4333729;32;34653;-86
2021/07/12 07:33:43;;;;;;;7.05;4.35;;;;;;;28.90;44.39;99684.69;4334804;32;33713;-87
2021/07/12 07:36:10;;;;;;;5.70;3.90;;;;;;;28.80;44.06;99692.56;4347768;32;34309;-88
2021/07/12 07:38:38;;;;;;;6.40;4.12;;;;;;;28.86;44.42;99696.59;4347684;32;32731;-86
2021/07/12 07:41:06;;;;;;;8.50;4.97;;;;;;;28.96;43.87;99686.88;4360860;32;33924;-87
2021/07/12 07:43:34;;;;;;;7.20;4.78;;;;;;;28.96;44.41;99692.22;4335134;32;34023;-87
2021/07/12 07:46:02;;;;;;;6.37;4.30;;;;;;;29.11;43.46;99689.22;4347366;32;33961;-88
2021/07/12 07:48:31;;;;;;;6.28;4.35;;;;;;;29.11;43.80;99691.03;4335363;32;33411;-87
2021/07/12 07:50:58;;;;;;;6.65;4.72;;;;;;;29.21;43.06;99687.56;4335077;32;33643;-87
2021/07/12 07:53:28;;;;;;;6.95;4.90;;;;;;;28.94;43.08;99687.00;4347396;32;34630;-87
2021/07/12 07:55:56;;;;;;;6.78;4.72;;;;;;;29.04;43.21;99682.66;4335308;32;33331;-87
2021/07/12 07:58:24;;;;;;;9.77;5.18;;;;;;;29.18;43.79;99682.44;4349375;32;33370;-86
2021/07/12 08:00:51;;;;;;;7.62;4.65;;;;;;;29.20;43.08;99687.69;4363791;32;33821;-85
2021/07/12 08:03:19;;;;;;;5.62;4.97;;;;;;;28.95;43.97;99694.06;4388073;32;34625;-87
2021/07/12 08:05:47;;;;;;;8.50;5.25;;;;;;;29.14;43.17;99686.31;4380583;32;35021;-87
2021/07/12 08:08:15;;;;;;;7.12;5.40;;;;;;;29.23;43.56;99685.62;4367157;32;33133;-88
2021/07/12 08:10:43;;;;;;;8.48;5.20;;;;;;;29.17;43.43;99686.06;4379217;32;33223;-88
2021/07/12 08:13:12;;;;;;;10.07;4.78;;;;;;;29.19;43.49;99683.31;4392813;32;34904;-87
2021/07/12 08:15:40;;;;;;;5.85;4.75;;;;;;;29.16;43.81;99686.19;4379233;32;34955;-88
2021/07/12 08:18:10;;;;;;;7.18;5.50;;;;;;;29.25;43.63;99688.16;4392908;32;33769;-87
2021/07/12 08:20:37;;;;;;;6.45;5.05;;;;;;;29.27;43.70;99684.41;4366636;32;33769;-88
2021/07/12 08:23:05;;;;;;;8.32;5.30;;;;;;;29.34;43.46;99676.72;4366386;32;34230;-88
2021/07/12 08:25:33;;;;;;;10.30;5.40;;;;;;;29.37;43.02;99679.16;4349342;32;33754;-88
2021/07/12 08:28:00;;;;;;;7.65;5.75;;;;;;;29.36;43.11;99681.00;4348924;32;33081;-88
2021/07/12 08:30:28;;;;;;;5.57;5.07;;;;;;;29.65;43.68;99693.88;4361380;32;34066;-87
2021/07/12 08:32:56;;;;;;;5.78;5.15;;;;;;;29.88;43.00;99692.94;4362672;32;34684;-88
2021/07/12 08:35:24;;;;;;;5.87;4.85;;;;;;;30.04;43.72;99693.38;4360594;32;33598;-87
2021/07/12 08:37:52;;;;;;;8.13;5.57;;;;;;;30.33;42.39;99697.25;4361214;32;33595;-88
2021/07/12 08:40:23;;;;;;;5.75;5.12;;;;;;;30.56;41.21;99698.00;4361487;32;34131;-88
2021/07/12 08:42:55;;;;;;;7.82;5.28;;;;;;;30.73;41.11;99694.75;4348992;32;33885;-88
2021/07/12 08:45:24;;;;;;;6.50;5.18;;;;;;;30.89;40.14;99691.62;4363338;32;34966;-89
2021/07/12 08:47:52;;;;;;;23.65;6.90;;;;;;;30.94;40.26;99689.41;4351456;32;33084;-88
2021/07/12 08:50:21;;;;;;;7.05;5.60;;;;;;;30.79;40.89;99680.78;4363789;32;33948;-88
2021/07/12 08:52:50;;;;;;;7.25;5.82;;;;;;;30.82;40.71;99688.59;4377256;32;34902;-87
2021/07/12 08:55:18;;;;;;;11.23;5.47;;;;;;;30.75;40.48;99687.41;4364001;32;34062;-87
2021/07/12 08:58:11;;;;;;;10.00;6.00;;;;;;;30.63;40.60;99675.03;4351436;32;33804;-87
2021/07/12 09:01:06;;;;;;;10.70;6.37;;;;;;;30.45;40.86;99680.09;4377341;32;34051;-86
2021/07/12 09:03:39;;;;;;;7.20;5.37;;;;;;;30.09;41.55;99681.31;4356577;32;34538;-88
2021/07/12 09:06:14;;;;;;;9.70;6.30;;;;;;;30.03;42.26;99673.75;4352477;32;33524;-86
2021/07/12 09:08:55;;;;;;;8.77;5.60;;;;;;;29.78;42.03;99692.84;4377887;32;34142;-87
2021/07/12 09:11:28;;;;;;;9.90;4.95;;;;;;;29.85;41.99;99686.00;4378777;32;34077;-87
2021/07/12 09:14:01;;;;;;;6.82;5.20;;;;;;;29.64;44.83;99673.44;4392111;32;35688;-86
2021/07/12 09:16:33;;;;;;;11.55;4.62;;;;;;;29.59;45.75;99681.84;4378954;32;34870;-86
2021/07/12 09:19:06;;;;;;;6.53;5.00;;;;;;;29.78;44.88;99676.75;4379004;32;33614;-85
2021/07/12 09:21:59;;;;;;;5.57;4.65;;;;;;;29.31;46.00;99677.00;4377722;32;33578;-88
2021/07/12 09:24:33;;;;;;;11.55;4.82;;;;;;;29.50;45.58;99675.38;4351511;32;34596;-86
2021/07/12 09:27:05;;;;;;;10.18;4.95;;;;;;;29.41;46.70;99664.53;4364141;32;34919;-87
2021/07/12 09:29:37;;;;;;;6.37;4.62;;;;;;;29.43;47.05;99665.28;4351832;32;34001;-87
2021/07/12 09:32:11;;;;;;;7.07;4.47;;;;;;;29.31;47.54;99671.63;4363758;32;34827;-87
2021/07/12 09:34:39;;;;;;;5.85;4.60;;;;;;;29.29;47.66;99668.19;4363867;32;35879;-88
2021/07/12 09:37:09;;;;;;;8.75;5.45;;;;;;;29.12;47.87;99668.66;4351432;32;34353;-87
2021/07/12 09:39:56;;;;;;;6.93;5.00;;;;;;;29.10;47.53;99679.47;4363146;32;33483;-87
2021/07/12 09:42:31;;;;;;;7.15;4.95;;;;;;;29.04;47.90;99679.97;4351520;32;34083;-86
2021/07/12 09:45:01;;;;;;;8.13;5.10;;;;;;;29.02;48.10;99684.59;4365088;32;34155;-86
2021/07/12 09:47:33;;;;;;;9.38;5.20;;;;;;;28.55;49.49;99688.19;4363571;32;34915;-87
2021/07/12 09:50:13;;;;;;;7.90;5.10;;;;;;;28.65;49.18;99691.03;4376909;32;34301;-87
2021/07/12 09:52:47;;;;;;;7.62;5.15;;;;;;;28.65;49.27;99683.88;4351375;32;33373;-87
2021/07/12 09:55:24;;;;;;;9.30;5.72;;;;;;;28.54;49.87;99688.31;4351109;32;33817;-87
2021/07/12 09:58:14;;;;;;;11.48;6.12;;;;;;;28.28;50.25;99684.06;4351080;32;33344;-87
2021/07/12 10:00:47;;;;;;;11.35;5.90;;;;;;;28.36;50.54;99682.50;4363556;32;33287;-87
2021/07/12 10:03:17;;;;;;;8.32;6.20;;;;;;;28.24;51.12;99666.53;4377068;32;34306;-87
2021/07/12 10:05:53;;;;;;;8.30;6.93;;;;;;;28.25;51.20;99668.22;4352875;32;34656;-86
2021/07/12 10:08:21;;;;;;;8.50;6.70;;;;;;;28.00;51.85;99666.53;4363700;32;34126;-87
2021/07/12 10:10:48;;;;;;;7.35;6.45;;;;;;;28.19;51.56;99667.72;4350679;32;32749;-86
2021/07/12 10:13:16;;;;;;;6.80;6.10;;;;;;;28.10;51.87;99656.84;4385794;32;34046;-86
2021/07/12 10:15:44;;;;;;;7.68;6.68;;;;;;;27.92;52.12;99650.16;4365784;32;35063;-86
2021/07/12 10:18:12;;;;;;;10.38;6.62;;;;;;;27.68;53.14;99654.62;4378534;32;34967;-88
2021/07/12 10:20:40;;;;;;;11.20;6.57;;;;;;;27.90;52.65;99668.16;4352570;32;32992;-87
2021/07/12 10:23:08;;;;;;;8.00;7.03;;;;;;;27.88;53.16;99657.56;4351103;32;33985;-87
2021/07/12 10:25:37;;;;;;;9.50;6.93;;;;;;;27.88;53.60;99654.03;4348594;32;34362;-87
2021/07/12 10:28:06;;;;;;;10.35;6.15;;;;;;;28.04;53.00;99660.00;4360633;32;33391;-87
2021/07/12 10:30:48;;;;;;;9.77;6.45;;;;;;;27.84;53.86;99653.41;4348450;32;33573;-86
2021/07/12 10:33:18;;;;;;;10.27;6.30;;;;;;;27.90;54.09;99641.41;4360884;32;35286;-87
2021/07/12 10:35:49;;;;;;;6.62;5.82;;;;;;;27.87;54.44;99644.31;4348400;32;35480;-86
2021/07/12 10:38:19;;;;;;;7.70;6.90;;;;;;;28.02;54.07;99646.75;4360282;32;34451;-87
2021/07/12 10:40:50;;;;;;;8.88;6.45;;;;;;;28.17;53.51;99640.25;4348630;32;32845;-86
2021/07/12 10:43:42;;;;;;;7.93;6.72;;;;;;;28.02;54.23;99637.88;4348174;32;33475;-85
2021/07/12 10:46:30;;;;;;;9.82;6.95;;;;;;;27.97;54.00;99634.66;4361399;32;35514;-87
2021/07/12 10:49:04;;;;;;;11.40;7.15;;;;;;;28.01;53.94;99633.47;4349418;32;33391;-86
2021/07/12 10:51:37;;;;;;;7.07;6.07;;;;;;;28.17;53.87;99634.03;4363023;32;34596;-86
2021/07/12 10:54:11;;;;;;;10.82;6.62;;;;;;;28.52;52.63;99640.28;4363020;32;33992;-87
2021/07/12 10:56:52;;;;;;;9.30;6.10;;;;;;;28.93;51.81;99629.06;4363585;32;34574;-85
2021/07/12 10:59:34;;;;;;;8.23;6.65;;;;;;;29.08;50.67;99621.66;4360355;32;34952;-86
2021/07/12 11:02:16;;;;;;;7.43;5.73;;;;;;;29.31;49.42;99616.22;4349535;32;33421;-86
2021/07/12 11:04:47;;;;;;;8.75;5.97;;;;;;;29.43;50.35;99617.91;4363053;32;33688;-87
2021/07/12 11:07:16;;;;;;;7.57;6.70;;;;;;;29.68;49.45;99621.28;4363253;32;34628;-87
2021/07/12 11:10:00;;;;;;;10.98;6.10;;;;;;;29.50;48.28;99608.41;4370773;32;34228;-87
2021/07/12 11:12:39;;;;;;;10.00;5.90;;;;;;;29.76;48.62;99608.12;4365772;32;33066;-87
2021/07/12 11:15:15;;;;;;;7.10;6.43;;;;;;;29.84;48.48;99605.69;4391539;32;34377;-87
2021/07/12 11:18:04;;;;;;;8.48;6.82;;;;;;;30.05;46.44;99606.56;4353785;32;35506;-87
2021/07/12 11:20:54;;;;;;;8.65;6.57;;;;;;;29.85;47.88;99604.72;4362671;32;33177;-87
2021/07/12 11:23:50;;;;;;;8.55;6.90;;;;;;;30.08;47.14;99609.00;4375959;32;33790;-86
2021/07/12 11:26:20;;;;;;;8.18;6.10;;;;;;;30.00;47.08;99606.97;4362893;32;34792;-86
2021/07/12 11:28:50;;;;;;;7.70;7.00;;;;;;;30.13;46.59;99602.28;4350526;32;34856;-86
2021/07/12 11:31:49;;;;;;;6.80;6.20;;;;;;;30.33;46.73;99605.13;4350404;32;34113;-86
2021/07/12 11:34:21;;;;;;;9.43;6.82;;;;;;;30.43;46.04;99598.88;4364593;32;33652;-86
2021/07/12 11:36:58;;;;;;;12.90;6.70;;;;;;;30.48;46.17;99601.16;4364558;32;34060;-86
2021/07/12 11:39:41;;;;;;;8.05;6.97;;;;;;;30.57;46.12;99605.78;4353380;32;34102;-85
2021/07/12 11:42:19;;;;;;;13.88;8.23;;;;;;;30.78;46.73;99598.56;4364381;32;34712;-85
2021/07/12 11:44:56;;;;;;;8.73;7.93;;;;;;;30.59;47.01;99598.44;4352500;32;34059;-84
2021/07/12 11:47:25;;;;;;;8.55;7.32;;;;;;;30.64;47.22;99604.28;4364139;32;34047;-84
2021/07/12 11:49:59;;;;;;;9.48;7.65;;;;;;;30.70;46.88;99607.28;4364399;32;34605;-85